createdAt,value
2023-01-26T00:03:55.704Z,12.00
2023-01-26T00:08:57.604Z,15.07
2023-01-26T00:14:00.494Z,11.02
2023-01-26T00:19:02.912Z,15.32
2023-01-26T00:24:05.355Z,11.57
2023-01-26T00:29:07.014Z,10.95
2023-01-26T00:34:08.647Z,8.80
2023-01-26T00:39:10.265Z,8.35
2023-01-26T00:44:11.883Z,15.50
2023-01-26T00:49:13.452Z,8.15
2023-01-26T00:54:15.440Z,9.93
2023-01-26T00:59:17.137Z,8.30
2023-01-26T01:04:21.198Z,9.15
2023-01-26T01:09:22.831Z,11.32
2023-01-26T01:14:24.558Z,13.05
2023-01-26T01:19:27.313Z,12.82
2023-01-26T01:24:29.068Z,11.27
2023-01-26T01:29:30.701Z,8.18
2023-01-26T01:34:32.865Z,10.43
2023-01-26T01:39:34.470Z,10.68
2023-01-26T01:44:38.245Z,9.80
2023-01-26T01:49:50.171Z,10.00
2023-01-26T01:54:59.651Z,11.18
2023-01-26T02:00:09.732Z,12.60
2023-01-26T02:05:26.954Z,12.80
2023-01-26T02:10:30.111Z,13.25
2023-01-26T02:15:32.124Z,14.25
2023-01-26T02:20:58.199Z,13.10
2023-01-26T02:26:04.119Z,12.63
2023-01-26T02:31:06.306Z,12.63
2023-01-26T02:36:16.733Z,12.90
2023-01-26T02:41:37.603Z,11.82
2023-01-26T02:46:39.583Z,14.38
2023-01-26T02:51:41.587Z,12.38
2023-01-26T02:56:43.242Z,12.15
2023-01-26T03:01:44.960Z,12.38
2023-01-26T03:06:47.135Z,12.00
2023-01-26T03:11:48.809Z,12.90
2023-01-26T03:16:51.924Z,12.20
2023-01-26T03:22:11.921Z,12.45
2023-01-26T03:27:28.647Z,13.15
2023-01-26T03:32:36.188Z,13.32
2023-01-26T03:37:43.779Z,14.55
2023-01-26T03:43:10.721Z,14.25
2023-01-26T03:48:31.562Z,13.80
2023-01-26T03:53:52.718Z,13.88
2023-01-26T03:58:56.779Z,13.02
2023-01-26T04:04:19.437Z,12.98
2023-01-26T04:09:23.478Z,13.65
2023-01-26T04:14:49.224Z,12.57
2023-01-26T04:20:13.736Z,14.07
2023-01-26T04:25:20.057Z,14.63
2023-01-26T04:30:21.964Z,15.05
2023-01-26T04:35:23.949Z,16.00
2023-01-26T04:40:25.823Z,17.23
2023-01-26T04:45:28.901Z,19.02
2023-01-26T04:50:30.936Z,16.63
2023-01-26T04:55:32.795Z,20.23
2023-01-26T05:00:34.728Z,18.58
2023-01-26T05:05:38.900Z,19.92
2023-01-26T05:10:40.641Z,19.00
2023-01-26T05:16:16.105Z,19.42
2023-01-26T05:21:36.154Z,19.80
2023-01-26T05:26:38.083Z,19.55
2023-01-26T05:31:44.329Z,20.38
2023-01-26T05:36:46.140Z,20.75
2023-01-26T05:41:47.826Z,20.40
2023-01-26T05:47:03.785Z,21.17
2023-01-26T05:52:18.419Z,20.92
2023-01-26T05:57:20.602Z,18.00
2023-01-26T06:02:27.380Z,19.63
2023-01-26T06:07:30.264Z,21.65
2023-01-26T06:12:43.710Z,19.40
2023-01-26T06:18:08.325Z,21.13
2023-01-26T06:23:12.098Z,25.67
2023-01-26T06:28:17.214Z,23.20
2023-01-26T06:33:19.135Z,23.58
2023-01-26T06:38:20.888Z,28.30
2023-01-26T06:43:23.486Z,31.55
2023-01-26T06:48:26.791Z,28.25
2023-01-26T06:53:40.049Z,26.63
2023-01-26T06:59:17.064Z,24.75
2023-01-26T07:04:36.971Z,25.88
2023-01-26T07:09:38.675Z,24.90
2023-01-26T07:14:40.318Z,24.38
2023-01-26T07:19:41.923Z,25.70
2023-01-26T07:24:43.504Z,25.65
2023-01-26T07:29:46.440Z,26.88
2023-01-26T07:34:50.603Z,28.00
2023-01-26T07:39:52.451Z,27.63
2023-01-26T07:44:54.055Z,29.23
2023-01-26T07:49:55.686Z,28.08
2023-01-26T07:54:57.556Z,30.05
2023-01-26T07:59:59.220Z,29.25
2023-01-26T08:05:02.764Z,27.40
2023-01-26T08:10:04.728Z,30.88
2023-01-26T08:15:06.734Z,31.73
2023-01-26T08:20:09.527Z,29.80
2023-01-26T08:25:12.201Z,30.88
2023-01-26T08:30:15.048Z,31.20
2023-01-26T08:35:16.769Z,30.90
2023-01-26T08:40:18.411Z,30.05
2023-01-26T08:45:20.302Z,31.77
2023-01-26T08:50:21.944Z,31.30
2023-01-26T08:55:23.564Z,29.13
2023-01-26T09:00:27.706Z,29.17
2023-01-26T09:05:33.641Z,29.25
2023-01-26T09:10:37.840Z,29.17
2023-01-26T09:15:39.666Z,28.60
2023-01-26T09:20:42.006Z,31.38
2023-01-26T09:25:44.729Z,30.95
2023-01-26T09:30:46.392Z,32.13
2023-01-26T09:35:48.588Z,31.58
2023-01-26T09:41:12.988Z,29.40
2023-01-26T09:46:20.816Z,28.90
2023-01-26T09:51:34.809Z,27.17
2023-01-26T09:56:36.505Z,31.15
2023-01-26T10:01:46.110Z,31.13
2023-01-26T10:06:48.686Z,30.25
2023-01-26T10:12:04.691Z,31.15
2023-01-26T10:17:15.155Z,32.55
2023-01-26T10:22:25.199Z,31.63
2023-01-26T10:27:29.514Z,29.20
2023-01-26T10:32:32.196Z,30.20
2023-01-26T10:37:34.901Z,30.13
2023-01-26T10:42:38.265Z,27.77
2023-01-26T10:47:39.868Z,29.30
2023-01-26T10:52:58.228Z,29.25
2023-01-26T10:58:01.352Z,27.77
2023-01-26T11:03:12.250Z,29.45
2023-01-26T11:08:37.138Z,30.85
2023-01-26T11:13:38.770Z,30.83
2023-01-26T11:19:03.144Z,31.00
2023-01-26T11:24:14.050Z,30.42
2023-01-26T11:29:54.307Z,29.60
2023-01-26T11:35:21.703Z,28.35
2023-01-26T11:40:26.100Z,26.42
2023-01-26T11:45:58.508Z,25.73
2023-01-26T11:51:27.745Z,25.70
2023-01-26T11:56:41.576Z,27.60
2023-01-26T12:01:53.231Z,26.52
2023-01-26T12:07:05.282Z,25.70
2023-01-26T12:12:30.780Z,26.67
2023-01-26T12:17:44.534Z,29.45
2023-01-26T12:23:00.620Z,29.05
2023-01-26T12:28:19.849Z,29.02
2023-01-26T12:33:21.788Z,27.88
2023-01-26T12:38:48.230Z,27.48
2023-01-26T12:44:01.950Z,26.52
2023-01-26T12:49:18.464Z,28.38
2023-01-26T12:54:57.322Z,27.63
2023-01-26T13:00:27.527Z,26.27
2023-01-26T13:05:33.623Z,27.85
2023-01-26T13:10:53.549Z,26.65
2023-01-26T13:16:34.494Z,27.15
2023-01-26T13:21:41.317Z,30.25
2023-01-26T13:26:56.837Z,29.73
2023-01-26T13:32:21.572Z,29.83
2023-01-26T13:37:44.310Z,28.35
2023-01-26T13:43:00.320Z,28.65
2023-01-26T13:48:10.031Z,27.08
2023-01-26T13:53:33.033Z,29.20
2023-01-26T13:58:34.731Z,26.55
2023-01-26T14:03:36.516Z,27.52
2023-01-26T14:08:39.495Z,29.05
2023-01-26T14:13:41.360Z,26.45
2023-01-26T14:18:45.270Z,28.63
2023-01-26T14:23:54.234Z,26.33
2023-01-26T14:28:56.021Z,27.00
2023-01-26T14:33:59.178Z,28.38
2023-01-26T14:39:01.212Z,27.23
2023-01-26T14:44:07.407Z,25.92
2023-01-26T14:49:24.595Z,27.98
2023-01-26T14:54:31.068Z,25.85
2023-01-26T14:59:38.558Z,27.15
2023-01-26T15:04:43.870Z,28.65
2023-01-26T15:09:52.399Z,27.88
2023-01-26T15:14:58.997Z,30.83
2023-01-26T15:20:03.065Z,33.60
2023-01-26T15:25:20.758Z,31.95
2023-01-26T15:30:27.954Z,32.92
2023-01-26T15:35:34.826Z,33.90
2023-01-26T15:40:36.527Z,32.70
2023-01-26T15:45:40.200Z,33.90
2023-01-26T15:50:41.848Z,31.05
2023-01-26T15:55:44.643Z,28.77
2023-01-26T16:00:46.382Z,32.33
2023-01-26T16:05:48.911Z,32.65
2023-01-26T16:10:51.223Z,31.25
2023-01-26T16:15:54.323Z,36.38
2023-01-26T16:20:56.164Z,36.92
2023-01-26T16:26:00.126Z,39.10
2023-01-26T16:31:02.688Z,37.53
2023-01-26T16:36:04.977Z,37.10
2023-01-26T16:41:12.556Z,38.42
2023-01-26T16:46:14.359Z,36.85
2023-01-26T16:51:22.088Z,36.42
2023-01-26T16:56:24.797Z,33.10
2023-01-26T17:01:30.717Z,32.47
2023-01-26T17:06:32.659Z,30.73
2023-01-26T17:11:34.487Z,31.33
2023-01-26T17:16:37.031Z,31.70
2023-01-26T17:21:38.810Z,29.67
2023-01-26T17:26:41.099Z,30.85
2023-01-26T17:31:43.139Z,29.20
2023-01-26T17:36:46.106Z,32.88
2023-01-26T17:41:47.802Z,29.80
2023-01-26T17:46:49.379Z,29.92
2023-01-26T17:51:51.219Z,31.45
2023-01-26T17:56:53.011Z,35.67
2023-01-26T18:01:54.775Z,28.85
2023-01-26T18:06:56.660Z,25.15
2023-01-26T18:11:58.268Z,26.25
2023-01-26T18:16:59.885Z,27.13
2023-01-26T18:22:01.549Z,25.75
2023-01-26T18:27:03.159Z,26.98
2023-01-26T18:32:07.344Z,24.27
2023-01-26T18:37:12.817Z,27.00
2023-01-26T18:42:14.704Z,27.70
2023-01-26T18:47:19.684Z,25.92
2023-01-26T18:52:22.311Z,24.95
2023-01-26T18:57:23.990Z,24.88
2023-01-26T19:02:25.665Z,22.33
2023-01-26T19:07:27.312Z,25.55
2023-01-26T19:12:28.946Z,24.35
2023-01-26T19:17:32.768Z,23.35
2023-01-26T19:22:37.397Z,24.60
2023-01-26T19:27:40.358Z,25.10
2023-01-26T19:33:00.405Z,24.27
2023-01-26T19:38:02.100Z,22.63
2023-01-26T19:43:06.556Z,24.98
2023-01-26T19:48:08.325Z,25.40
2023-01-26T19:53:10.330Z,26.83
2023-01-26T19:58:11.977Z,22.20
2023-01-26T20:03:13.682Z,22.92
2023-01-26T20:08:15.310Z,22.00
2023-01-26T20:13:17.480Z,24.80
2023-01-26T20:18:19.119Z,24.75
2023-01-26T20:23:21.164Z,23.75
2023-01-26T20:28:22.788Z,24.83
2023-01-26T20:33:24.859Z,23.23
2023-01-26T20:38:26.736Z,23.92
2023-01-26T20:43:28.301Z,22.30
2023-01-26T20:48:29.906Z,24.00
2023-01-26T20:53:31.606Z,24.30
2023-01-26T20:58:35.477Z,22.67
2023-01-26T21:03:37.855Z,23.33
2023-01-26T21:08:40.290Z,20.00
2023-01-26T21:13:45.221Z,19.30
2023-01-26T21:18:46.878Z,19.00
2023-01-26T21:23:48.933Z,19.73
2023-01-26T21:28:52.673Z,18.02
2023-01-26T21:33:54.942Z,18.80
2023-01-26T21:38:58.994Z,17.88
2023-01-26T21:44:21.044Z,17.38
2023-01-26T21:49:23.905Z,18.20
2023-01-26T21:54:26.020Z,16.63
2023-01-26T21:59:31.909Z,17.98
2023-01-26T22:04:35.738Z,17.23
2023-01-26T22:09:38.862Z,19.25
2023-01-26T22:14:40.560Z,17.13
2023-01-26T22:19:42.399Z,17.55
2023-01-26T22:24:44.229Z,18.27
2023-01-26T22:29:46.038Z,17.42
2023-01-26T22:34:47.647Z,17.65
2023-01-26T22:39:49.944Z,18.05
2023-01-26T22:44:51.543Z,16.90
2023-01-26T22:49:53.129Z,17.20
2023-01-26T22:54:57.733Z,16.50
2023-01-26T22:59:59.699Z,16.75
2023-01-26T23:05:01.350Z,16.67
2023-01-26T23:10:03.028Z,17.13
2023-01-26T23:15:05.007Z,16.17
2023-01-26T23:20:07.546Z,17.38
2023-01-26T23:25:27.786Z,17.00
2023-01-26T23:30:30.127Z,17.17
2023-01-26T23:35:31.723Z,16.83
2023-01-26T23:40:34.554Z,16.95
2023-01-26T23:45:36.528Z,17.73
2023-01-26T23:50:38.721Z,16.95
2023-01-26T23:55:43.466Z,17.50
